Time;durP1;ratioP1;P1;durP2;ratioP2;P2;SDS_P1;SDS_P2;PMS_P1;PMS_P2;Temp;Humidity;BMP_temperature;BMP_pressure;BME280_temperature;BME280_humidity;BME280_pressure;Samples;Min_cycle;Max_cycle;Signal;HPM_P1;HPM_P2
2023/01/03 00:00:16;;;;;;;12.20;6.75;;;;;;;7.42;78.81;102643.30;1846971;77;21628;-46
2023/01/03 00:02:44;;;;;;;12.63;6.40;;;;;;;7.43;78.84;102641.11;1849262;77;21596;-46
2023/01/03 00:05:13;;;;;;;12.80;6.15;;;;;;;7.44;78.91;102648.98;1839930;78;21208;-47
2023/01/03 00:07:42;;;;;;;17.35;8.90;;;;;;;7.45;78.90;102645.91;1839814;78;21144;-47
2023/01/03 00:10:11;;;;;;;12.55;6.85;;;;;;;7.45;78.88;102648.53;1839836;78;21598;-46
2023/01/03 00:12:40;;;;;;;15.83;6.60;;;;;;;7.45;78.90;102643.30;1839557;78;21163;-47
2023/01/03 00:15:09;;;;;;;13.70;6.97;;;;;;;7.45;78.71;102647.23;1839769;78;21045;-47
2023/01/03 00:17:38;;;;;;;12.78;6.85;;;;;;;7.44;78.59;102642.88;1839817;78;21195;-49
2023/01/03 00:20:08;;;;;;;13.70;6.50;;;;;;;7.43;78.69;102642.42;1839887;78;21069;-47
2023/01/03 00:22:37;;;;;;;18.23;7.45;;;;;;;7.43;78.64;102643.31;1839782;78;21524;-47
2023/01/03 00:25:07;;;;;;;11.85;6.28;;;;;;;7.42;78.69;102635.44;1839438;76;21033;-47
2023/01/03 00:27:36;;;;;;;11.10;6.25;;;;;;;7.42;78.77;102636.75;1839800;78;21113;-47
2023/01/03 00:30:05;;;;;;;12.07;6.47;;;;;;;7.41;79.00;102633.67;1839143;78;21034;-47
2023/01/03 00:32:34;;;;;;;15.90;7.17;;;;;;;7.44;79.33;102638.94;1833069;78;21140;-47
2023/01/03 00:35:03;;;;;;;15.30;6.85;;;;;;;7.42;79.07;102629.75;1808009;79;21132;-48
2023/01/03 00:37:32;;;;;;;17.75;7.33;;;;;;;7.39;78.99;102632.80;1808062;79;21065;-46
2023/01/03 00:40:00;;;;;;;15.80;7.40;;;;;;;7.38;79.00;102628.41;1808069;79;21124;-46
2023/01/03 00:43:27;;;;;;;15.48;6.35;;;;;;;7.35;78.91;102633.21;1811964;78;21631;-46
2023/01/03 00:44:59;;;;;;;18.65;7.17;;;;;;;7.32;78.93;102634.09;1835039;78;21134;-47
2023/01/03 00:47:28;;;;;;;13.48;6.62;;;;;;;7.33;79.08;102626.65;1839794;78;21034;-47
2023/01/03 00:49:57;;;;;;;14.78;7.45;;;;;;;7.31;78.98;102633.63;1839696;78;21218;-47
2023/01/03 00:52:25;;;;;;;17.12;8.65;;;;;;;7.30;78.98;102627.07;1821175;78;21106;-46
2023/01/03 00:54:54;;;;;;;13.68;6.58;;;;;;;7.29;79.08;102631.44;1839726;78;21101;-46
2023/01/03 00:57:23;;;;;;;16.82;7.00;;;;;;;7.28;79.07;102619.64;1839789;78;21065;-46
2023/01/03 00:59:51;;;;;;;18.27;8.25;;;;;;;7.26;78.96;102618.31;1836896;78;21160;-46
2023/01/03 01:02:20;;;;;;;13.00;7.10;;;;;;;7.27;79.24;102624.02;1839711;77;21057;-46
2023/01/03 01:04:51;;;;;;;12.35;6.58;;;;;;;7.27;79.29;102612.22;1839785;78;21168;-48
2023/01/03 01:07:19;;;;;;;12.23;6.28;;;;;;;7.29;79.48;102618.34;1840677;77;21066;-46
2023/01/03 01:09:47;;;;;;;14.63;7.45;;;;;;;7.28;79.40;102608.72;1846476;77;21119;-46
2023/01/03 01:12:16;;;;;;;16.80;8.43;;;;;;;7.26;79.28;102617.00;1854172;77;21080;-46
2023/01/03 01:14:45;;;;;;;16.60;8.15;;;;;;;7.24;79.31;102615.26;1854223;77;21090;-46
2023/01/03 01:17:14;;;;;;;9.85;5.92;;;;;;;7.20;79.31;102620.91;1854165;77;21060;-46
2023/01/03 01:19:44;;;;;;;13.18;6.00;;;;;;;7.17;79.30;102611.72;1853247;77;21151;-46
2023/01/03 01:22:13;;;;;;;11.70;5.87;;;;;;;7.20;79.49;102616.98;1854224;77;21422;-47
2023/01/03 01:24:42;;;;;;;17.02;6.58;;;;;;;7.23;79.47;102613.08;1854220;77;21048;-47
2023/01/03 01:27:11;;;;;;;12.45;5.42;;;;;;;7.24;79.47;102613.50;1854208;77;21150;-46
2023/01/03 01:29:40;;;;;;;10.70;5.65;;;;;;;7.27;79.57;102603.05;1853456;77;21229;-45
2023/01/03 01:32:09;;;;;;;13.60;6.15;;;;;;;7.29;79.55;102597.82;1839650;78;21211;-47
2023/01/03 01:34:38;;;;;;;12.23;5.62;;;;;;;7.31;79.69;102595.64;1839789;78;21135;-47
2023/01/03 01:37:07;;;;;;;9.75;4.12;;;;;;;7.33;79.83;102595.20;1839769;78;21555;-48
2023/01/03 01:39:35;;;;;;;15.83;6.20;;;;;;;7.33;79.79;102598.27;1839733;78;21077;-45
2023/01/03 01:44:59;;;;;;;12.18;6.65;;;;;;;7.28;79.70;102591.68;1809935;79;21578;-46
2023/01/03 01:47:53;;;;;;;14.40;5.90;;;;;;;7.28;79.67;102597.36;1809706;79;21057;-46
2023/01/03 01:50:40;;;;;;;13.48;6.53;;;;;;;7.25;79.63;102595.63;1809257;79;21180;-46
2023/01/03 01:53:21;;;;;;;13.18;4.90;;;;;;;7.23;79.55;102599.98;1809776;79;21152;-47
2023/01/03 01:55:55;;;;;;;13.03;5.47;;;;;;;7.23;79.66;102593.43;1809623;79;21069;-46
2023/01/03 01:58:27;;;;;;;11.25;5.35;;;;;;;7.22;79.56;102587.73;1809653;79;21649;-46
2023/01/03 02:00:57;;;;;;;10.05;5.67;;;;;;;7.21;79.58;102592.55;1809560;79;21210;-45
2023/01/03 02:03:26;;;;;;;11.60;5.87;;;;;;;7.19;79.50;102592.95;1851483;77;21092;-45
2023/01/03 02:05:57;;;;;;;9.10;4.80;;;;;;;7.18;79.50;102597.77;1854202;77;21079;-45
2023/01/03 02:08:26;;;;;;;11.93;5.40;;;;;;;7.17;79.55;102593.38;1854244;77;21123;-46
2023/01/03 02:11:31;;;;;;;11.30;5.08;;;;;;;7.15;79.64;102592.05;1839962;77;21078;-47
2023/01/03 02:14:27;;;;;;;14.43;5.72;;;;;;;7.14;79.70;102589.45;1839773;78;21105;-47
2023/01/03 02:17:27;;;;;;;11.88;5.92;;;;;;;7.11;79.67;102585.06;1839740;78;21590;-46
2023/01/03 02:20:17;;;;;;;8.35;4.47;;;;;;;7.10;79.67;102585.05;1820639;77;21692;-49
2023/01/03 02:23:11;;;;;;;6.90;4.25;;;;;;;7.10;79.69;102585.05;1839734;78;21524;-46
2023/01/03 02:25:57;;;;;;;;;;;;;;;7.11;79.65;102582.87;1842480;78;21507;-46
2023/01/03 02:28:49;;;;;;;13.38;5.05;;;;;;;7.11;79.39;102577.20;1839739;78;20124;-47
2023/01/03 02:31:26;;;;;;;10.32;5.08;;;;;;;7.06;79.24;102578.91;1840632;77;21121;-46
2023/01/03 02:33:58;;;;;;;11.45;5.47;;;;;;;7.03;79.23;102580.67;1839734;78;21058;-48
2023/01/03 02:36:42;;;;;;;16.17;5.25;;;;;;;7.05;79.32;102578.94;1839553;78;21137;-47
2023/01/03 02:39:16;;;;;;;10.90;4.60;;;;;;;7.09;79.63;102578.08;1839673;78;21101;-46
2023/01/03 02:41:48;;;;;;;11.15;4.80;;;;;;;7.15;79.60;102572.85;1839915;77;21171;-46
2023/01/03 02:44:20;;;;;;;13.80;5.10;;;;;;;7.17;79.52;102583.34;1839219;78;21083;-46
2023/01/03 02:47:07;;;;;;;11.43;5.45;;;;;;;7.16;79.38;102582.48;1838920;78;21050;-46
2023/01/03 02:49:38;;;;;;;11.30;5.20;;;;;;;7.14;79.39;102578.53;1839822;78;21593;-46
2023/01/03 02:52:19;;;;;;;10.82;5.87;;;;;;;7.09;79.42;102578.08;1839700;77;21116;-46
2023/01/03 02:55:00;;;;;;;11.38;5.58;;;;;;;7.09;79.45;102576.77;1839770;78;21140;-45
2023/01/03 02:57:38;;;;;;;9.08;4.62;;;;;;;7.04;79.43;102578.48;1831998;78;21631;-46
2023/01/03 03:00:09;;;;;;;10.90;5.35;;;;;;;7.02;79.45;102577.59;1823200;78;21196;-45
2023/01/03 03:02:43;;;;;;;11.40;4.67;;;;;;;7.02;79.35;102572.36;1826690;77;21488;-47
2023/01/03 03:05:14;;;;;;;9.68;4.67;;;;;;;6.98;79.22;102571.47;1824949;78;21132;-47
2023/01/03 03:07:43;;;;;;;12.43;5.03;;;;;;;6.96;79.26;102575.38;1824873;78;21124;-46
2023/01/03 03:13:14;;;;;;;13.75;5.83;;;;;;;6.91;79.20;102571.86;1850705;77;21241;-47
2023/01/03 03:15:48;;;;;;;12.88;5.53;;;;;;;6.86;79.23;102564.44;1848698;77;21056;-46
2023/01/03 03:18:19;;;;;;;10.23;5.33;;;;;;;6.83;79.11;102561.78;1824922;78;21153;-47
2023/01/03 03:26:27;;;;;;;11.90;6.58;;;;;;;6.54;78.98;102560.29;1824862;78;21517;-46
2023/01/03 03:28:58;;;;;;;12.18;6.17;;;;;;;6.43;78.86;102557.59;1819011;78;21064;-47
2023/01/03 03:31:30;;;;;;;11.57;5.35;;;;;;;6.33;78.91;102555.79;1821891;77;21097;-46
2023/01/03 03:34:17;;;;;;;10.65;5.28;;;;;;;6.23;78.96;102552.64;1820526;78;21039;-47
2023/01/03 03:37:06;;;;;;;11.85;5.08;;;;;;;6.17;79.20;102553.03;1824771;77;21070;-47
2023/01/03 03:45:33;;;;;;;10.60;5.70;;;;;;;6.10;79.04;102535.53;1824931;78;21113;-47
2023/01/03 03:49:36;;;;;;;10.43;5.22;;;;;;;5.99;78.94;102537.18;1824575;78;21509;-46
2023/01/03 03:51:11;;;;;;;12.17;5.33;;;;;;;5.91;78.99;102532.30;1824782;77;21101;-47
2023/01/03 03:53:41;;;;;;;11.65;5.28;;;;;;;5.95;79.17;102533.66;1850131;77;21131;-48
2023/01/03 03:56:15;;;;;;;10.72;4.97;;;;;;;6.05;79.49;102521.56;1850679;77;21708;-46
2023/01/03 03:58:46;;;;;;;10.68;4.87;;;;;;;6.21;79.58;102524.29;1850705;77;21100;-48
2023/01/03 04:01:18;;;;;;;10.05;5.53;;;;;;;6.28;79.44;102522.16;1848994;77;21167;-47
2023/01/03 04:03:50;;;;;;;17.30;5.20;;;;;;;6.35;79.43;102523.97;1795314;80;21423;-45
2023/01/03 04:06:51;;;;;;;11.93;5.78;;;;;;;6.40;79.31;102524.88;1795422;80;21223;-48
2023/01/03 04:09:17;;;;;;;9.25;5.05;;;;;;;6.38;79.04;102525.27;1781396;79;21095;-47
2023/01/03 04:11:46;;;;;;;11.83;5.75;;;;;;;6.27;78.64;102523.02;1768142;81;21237;-47
2023/01/03 04:14:14;;;;;;;9.28;4.90;;;;;;;6.15;78.54;102523.81;1783312;79;21140;-48
2023/01/03 04:16:43;;;;;;;10.70;5.17;;;;;;;6.00;78.73;102519.34;1800295;80;21150;-46
2023/01/03 04:19:12;;;;;;;14.45;5.80;;;;;;;5.94;78.61;102520.56;1860018;77;21138;-48
2023/01/03 04:21:40;;;;;;;12.37;5.70;;;;;;;5.85;78.53;102514.81;1862387;77;21103;-48
2023/01/03 04:24:09;;;;;;;10.10;5.53;;;;;;;5.76;78.73;102519.52;1862313;77;21067;-47
2023/01/03 04:26:38;;;;;;;12.30;5.37;;;;;;;5.69;78.79;102519.45;1862370;77;21134;-45
2023/01/03 04:29:07;;;;;;;9.98;4.95;;;;;;;5.62;78.67;102515.89;1862311;77;21197;-46
2023/01/03 04:31:35;;;;;;;13.83;6.33;;;;;;;5.52;78.62;102511.02;1860519;77;21107;-45
2023/01/03 04:34:04;;;;;;;13.25;6.10;;;;;;;5.43;78.47;102507.44;1862321;77;21534;-45
2023/01/03 04:36:32;;;;;;;15.98;5.78;;;;;;;5.34;78.42;102512.98;1862100;77;21166;-46
2023/01/03 04:39:01;;;;;;;12.75;5.78;;;;;;;5.27;78.42;102508.55;1862365;77;21060;-46
2023/01/03 04:41:30;;;;;;;14.45;5.72;;;;;;;5.21;78.41;102505.88;1860530;77;21194;-46
2023/01/03 04:44:03;;;;;;;11.48;5.70;;;;;;;5.15;78.35;102508.43;1843061;77;21097;-45
2023/01/03 04:46:34;;;;;;;12.53;5.60;;;;;;;5.10;78.30;102499.66;1786336;80;21072;-46
2023/01/03 04:49:04;;;;;;;12.88;6.25;;;;;;;5.06;78.35;102500.48;1786208;80;21140;-46
2023/01/03 04:51:33;;;;;;;15.83;5.97;;;;;;;5.05;78.72;102503.94;1786320;79;22428;-45
2023/01/03 04:54:03;;;;;;;13.50;6.30;;;;;;;5.07;78.98;102504.84;1784976;80;21129;-47
2023/01/03 04:56:37;;;;;;;14.50;6.12;;;;;;;5.12;79.06;102497.94;1785194;80;21035;-46
2023/01/03 04:59:05;;;;;;;;;;;;;;;5.16;78.90;102494.50;1791262;80;21098;-46
2023/01/03 05:01:34;;;;;;;12.18;6.05;;;;;;;5.17;78.61;102496.27;1791568;79;20198;-46
2023/01/03 05:04:03;;;;;;;12.45;6.37;;;;;;;5.17;78.68;102491.05;1794254;80;21138;-49
2023/01/03 05:06:32;;;;;;;10.40;5.62;;;;;;;5.17;78.61;102493.22;1794113;80;21135;-46
2023/01/03 05:09:00;;;;;;;13.22;6.03;;;;;;;5.19;78.59;102495.41;1793859;80;21039;-46
2023/01/03 05:11:29;;;;;;;13.32;6.58;;;;;;;5.24;78.83;102495.48;1794273;80;21221;-46
2023/01/03 05:14:00;;;;;;;11.05;5.72;;;;;;;5.32;79.02;102497.73;1794228;80;21150;-47
2023/01/03 05:16:28;;;;;;;11.78;5.70;;;;;;;5.44;79.14;102486.96;1794315;80;21221;-46
2023/01/03 05:18:57;;;;;;;13.60;6.60;;;;;;;5.60;79.29;102491.05;1794152;80;21202;-48
2023/01/03 05:27:03;;;;;;;11.97;5.42;;;;;;;6.08;79.23;102494.11;1794345;80;21115;-46
2023/01/03 05:29:33;;;;;;;14.80;6.72;;;;;;;6.46;79.09;102495.27;1793950;80;21209;-48
2023/01/03 05:32:02;;;;;;;15.30;6.83;;;;;;;6.82;78.83;102493.25;1803302;79;21078;-48
2023/01/03 05:34:30;;;;;;;17.15;6.20;;;;;;;7.18;78.51;102492.97;1765486;81;21087;-47
2023/01/03 05:36:59;;;;;;;18.48;7.47;;;;;;;7.62;77.92;102489.58;1765406;81;21087;-46
2023/01/03 05:39:28;;;;;;;20.27;6.87;;;;;;;8.07;77.19;102487.82;1795028;80;21195;-47
2023/01/03 05:42:01;;;;;;;23.07;7.95;;;;;;;8.41;76.57;102483.86;1830186;78;21154;-46
2023/01/03 05:44:33;;;;;;;17.35;7.75;;;;;;;8.75;75.91;102482.47;1825417;78;21133;-49
2023/01/03 05:47:04;;;;;;;16.00;7.53;;;;;;;9.15;75.04;102486.25;1824679;78;21117;-49
2023/01/03 05:49:34;;;;;;;14.73;6.83;;;;;;;9.62;73.91;102483.75;1824665;78;21132;-47
2023/01/03 05:52:03;;;;;;;14.90;6.50;;;;;;;10.18;72.63;102484.61;1825499;78;21058;-52
2023/01/03 05:54:31;;;;;;;16.25;7.22;;;;;;;10.64;71.37;102492.06;1824544;78;21106;-49
2023/01/03 05:57:00;;;;;;;12.10;7.05;;;;;;;11.10;70.45;102490.20;1824593;78;21062;-51
2023/01/03 05:59:29;;;;;;;17.20;7.55;;;;;;;11.49;69.50;102489.64;1831905;78;21239;-48
2023/01/03 06:01:58;;;;;;;18.25;8.45;;;;;;;11.89;69.09;102492.52;1839880;77;21559;-47
2023/01/03 06:04:26;;;;;;;19.25;7.78;;;;;;;12.32;68.56;102496.22;1839772;78;21583;-47
2023/01/03 06:06:55;;;;;;;20.12;7.65;;;;;;;12.93;68.06;102496.81;1839701;78;21050;-47
2023/01/03 06:09:24;;;;;;;14.55;7.25;;;;;;;13.55;67.20;102495.48;1844610;77;21103;-48
2023/01/03 06:11:52;;;;;;;16.77;7.33;;;;;;;13.98;66.38;102493.98;1854272;77;21121;-48
2023/01/03 06:14:21;;;;;;;13.00;7.22;;;;;;;14.32;65.78;102490.45;1854221;77;21083;-47
2023/01/03 06:19:36;;;;;;;11.20;6.20;;;;;;;15.25;64.12;102488.69;1853116;77;21679;-50
2023/01/03 06:22:04;;;;;;;15.40;7.78;;;;;;;15.67;62.80;102484.27;1854173;77;21037;-50
2023/01/03 06:24:33;;;;;;;20.30;8.90;;;;;;;15.97;60.98;102485.52;1854276;77;21064;-51
2023/01/03 06:27:02;;;;;;;16.40;7.42;;;;;;;16.35;59.50;102485.98;1852520;77;21052;-49
2023/01/03 06:29:30;;;;;;;17.40;7.58;;;;;;;16.77;58.88;102480.89;1839846;78;21069;-48
2023/01/03 06:31:59;;;;;;;19.23;7.83;;;;;;;17.14;58.45;102486.64;1840601;77;21128;-50
2023/01/03 06:34:29;;;;;;;13.53;6.70;;;;;;;17.70;57.89;102489.28;1828630;78;21222;-48
2023/01/03 06:36:57;;;;;;;10.98;5.65;;;;;;;18.20;56.93;102486.77;1809770;79;21536;-48
2023/01/03 06:39:26;;;;;;;11.30;5.33;;;;;;;18.60;55.83;102481.01;1809733;79;21129;-51
2023/01/03 06:41:55;;;;;;;9.80;5.22;;;;;;;18.58;54.49;102479.73;1839561;77;21036;-51
2023/01/03 06:44:23;;;;;;;10.50;5.40;;;;;;;18.49;52.65;102481.02;1828323;77;21085;-51
2023/01/03 06:55:04;;;;;;;8.50;5.22;;;;;;;19.54;51.24;102476.14;1854140;77;21052;-50
2023/01/03 06:57:33;;;;;;;10.25;5.30;;;;;;;19.97;51.00;102474.00;1854186;77;21107;-50
2023/01/03 07:00:01;;;;;;;23.27;6.08;;;;;;;20.44;50.64;102473.34;1850758;77;21072;-51
2023/01/03 07:02:30;;;;;;;13.30;5.50;;;;;;;21.12;49.55;102471.50;1854639;77;21120;-51
2023/01/03 07:04:59;;;;;;;10.25;4.50;;;;;;;21.42;48.48;102462.17;1785971;80;21189;-51
2023/01/03 07:07:27;;;;;;;7.08;4.30;;;;;;;21.75;48.40;102468.75;1786766;79;21178;-46
2023/01/03 07:09:56;;;;;;;8.50;4.67;;;;;;;21.97;48.07;102464.31;1785987;80;21056;-47
2023/01/03 07:15:12;;;;;;;8.23;4.67;;;;;;;22.52;46.93;102457.88;1757526;82;21764;-51
2023/01/03 07:17:40;;;;;;;8.48;4.35;;;;;;;23.04;46.00;102451.92;1758740;79;21080;-53
2023/01/03 07:20:09;;;;;;;9.00;4.22;;;;;;;23.33;45.34;102447.79;1759474;80;21116;-51
2023/01/03 07:22:38;;;;;;;6.67;4.17;;;;;;;23.52;43.91;102448.79;1819181;79;21067;-51
2023/01/03 07:25:08;;;;;;;7.87;3.87;;;;;;;23.25;42.36;102446.11;1862206;77;21613;-51
2023/01/03 07:27:36;;;;;;;6.42;4.42;;;;;;;22.82;42.07;102450.22;1857412;77;21051;-49
2023/01/03 07:30:06;;;;;;;5.85;3.45;;;;;;;22.47;40.98;102450.63;1860184;77;21173;-48
2023/01/03 07:32:34;;;;;;;7.62;3.92;;;;;;;22.23;41.21;102449.80;1837836;77;21045;-51
2023/01/03 07:35:03;;;;;;;7.08;3.87;;;;;;;22.10;40.96;102447.49;1822636;77;21138;-50
2023/01/03 07:37:32;;;;;;;7.25;4.10;;;;;;;22.21;40.93;102445.02;1840899;77;21064;-51
2023/01/03 07:40:00;;;;;;;6.05;3.65;;;;;;;22.42;40.12;102442.84;1845787;77;21127;-48
2023/01/03 07:45:16;;;;;;;7.37;3.80;;;;;;;23.07;39.53;102435.61;1824646;78;21647;-53
2023/01/03 07:47:45;;;;;;;7.05;3.50;;;;;;;23.40;39.19;102437.02;1824636;77;21528;-53
2023/01/03 07:50:14;;;;;;;4.10;2.92;;;;;;;23.96;38.86;102431.95;1818129;78;21760;-51
2023/01/03 07:52:43;;;;;;;3.20;2.62;;;;;;;24.15;37.02;102432.89;1820213;77;21065;-51
2023/01/03 07:55:12;;;;;;;6.47;3.17;;;;;;;23.97;36.11;102428.30;1824748;78;21188;-52
2023/01/03 07:57:41;;;;;;;6.20;3.70;;;;;;;23.72;36.21;102431.31;1821834;78;21210;-54
2023/01/03 08:00:10;;;;;;;4.45;2.90;;;;;;;23.80;35.40;102423.60;1824572;77;21159;-48
2023/01/03 08:02:40;;;;;;;5.05;3.70;;;;;;;23.58;34.84;102434.92;1837038;78;21127;-48
2023/01/03 08:05:09;;;;;;;5.87;3.37;;;;;;;23.79;34.51;102437.11;1832555;77;21085;-47
2023/01/03 08:07:38;;;;;;;5.03;3.12;;;;;;;23.99;34.03;102425.88;1841192;77;21054;-53
2023/01/03 08:15:41;;;;;;;4.75;2.92;;;;;;;24.69;35.02;102433.13;1838339;77;21516;-49
2023/01/03 08:18:10;;;;;;;5.53;3.67;;;;;;;25.23;34.35;102426.90;1835367;77;21716;-49
2023/01/03 08:20:39;;;;;;;6.22;3.35;;;;;;;25.59;33.30;102421.02;1833253;78;21562;-47
2023/01/03 08:23:08;;;;;;;4.83;3.55;;;;;;;25.75;31.79;102419.37;1840627;78;21072;-51
2023/01/03 08:25:37;;;;;;;5.75;3.42;;;;;;;25.20;31.58;102410.06;1840590;78;21062;-50
2023/01/03 08:28:07;;;;;;;5.22;3.90;;;;;;;25.15;31.53;102405.50;1843565;77;21057;-49
2023/01/03 08:30:39;;;;;;;7.05;4.20;;;;;;;25.34;31.94;102397.78;1841631;78;21050;-52
2023/01/03 08:33:10;;;;;;;6.17;3.95;;;;;;;26.03;32.05;102397.01;1840489;78;21166;-51
2023/01/03 08:35:42;;;;;;;7.65;3.92;;;;;;;26.55;32.01;102391.47;1837271;78;21176;-49
2023/01/03 08:38:14;;;;;;;9.35;4.42;;;;;;;26.83;31.46;102385.69;1839024;78;21519;-52
2023/01/03 08:40:45;;;;;;;6.33;4.05;;;;;;;27.15;31.24;102381.16;1840623;77;21124;-50
2023/01/03 08:43:15;;;;;;;8.18;4.22;;;;;;;27.40;31.16;102389.08;1843346;77;21133;-52
2023/01/03 08:45:45;;;;;;;5.22;3.47;;;;;;;27.96;30.93;102379.78;1842430;78;21065;-52
2023/01/03 08:48:13;;;;;;;6.22;3.72;;;;;;;28.27;30.40;102381.99;1840530;78;21045;-48
2023/01/03 08:50:42;;;;;;;5.28;3.17;;;;;;;27.99;29.88;102377.66;1839842;78;21105;-48
2023/01/03 08:53:11;;;;;;;6.80;3.55;;;;;;;28.08;29.63;102374.14;1840493;78;21066;-52
2023/01/03 08:55:40;;;;;;;6.92;4.00;;;;;;;27.73;28.69;102361.81;1840726;78;21108;-50
2023/01/03 08:58:08;;;;;;;5.92;3.77;;;;;;;27.37;29.28;102363.64;1840518;78;21135;-50
2023/01/03 09:00:38;;;;;;;4.65;2.92;;;;;;;27.62;29.23;102355.13;1839887;78;21065;-49
2023/01/03 09:03:07;;;;;;;6.08;3.30;;;;;;;27.92;29.42;102353.48;1825826;78;21496;-48
2023/01/03 09:05:37;;;;;;;7.70;4.00;;;;;;;28.00;29.23;102357.73;1821049;78;21050;-51
2023/01/03 09:08:06;;;;;;;5.15;3.02;;;;;;;28.33;29.12;102357.09;1825688;78;21567;-52
2023/01/03 09:10:36;;;;;;;5.35;3.60;;;;;;;28.54;28.79;102354.83;1811280;78;21058;-51
2023/01/03 09:13:04;;;;;;;5.58;3.83;;;;;;;28.34;28.18;102347.95;1799296;78;21193;-50
2023/01/03 09:15:33;;;;;;;3.65;2.47;;;;;;;28.26;28.15;102340.52;1814505;78;21141;-53
2023/01/03 09:18:02;;;;;;;4.90;2.50;;;;;;;28.48;28.17;102343.51;1810801;78;21188;-51
2023/01/03 09:20:30;;;;;;;6.62;2.75;;;;;;;27.91;27.50;102334.19;1806795;78;21106;-53
2023/01/03 09:22:59;;;;;;;6.42;3.75;;;;;;;27.85;27.92;102327.43;1814221;78;21184;-51
2023/01/03 09:25:28;;;;;;;5.35;3.27;;;;;;;27.68;27.51;102322.12;1824043;78;21156;-53
2023/01/03 09:27:57;;;;;;;4.60;2.95;;;;;;;27.66;27.09;102311.93;1811535;78;21069;-52
2023/01/03 09:30:27;;;;;;;4.47;3.30;;;;;;;27.46;26.54;102301.52;1800826;78;21082;-52
2023/01/03 09:32:56;;;;;;;5.12;3.00;;;;;;;27.10;26.66;102311.75;1819040;78;21132;-50
2023/01/03 09:35:24;;;;;;;5.75;2.90;;;;;;;27.14;26.76;102308.30;1801466;78;21050;-51
2023/01/03 09:37:53;;;;;;;5.05;3.27;;;;;;;27.30;26.93;102299.27;1805850;78;21062;-52
2023/01/03 09:40:22;;;;;;;4.70;3.10;;;;;;;27.79;26.96;102304.09;1796691;78;21590;-50
2023/01/03 09:45:39;;;;;;;5.33;3.22;;;;;;;28.10;26.44;102296.34;1813257;78;21058;-49
2023/01/03 09:48:10;;;;;;;4.83;3.40;;;;;;;28.42;26.25;102289.89;1825753;78;21474;-53
2023/01/03 09:50:39;;;;;;;9.03;4.25;;;;;;;28.38;26.00;102284.88;1825582;78;21058;-51
2023/01/03 10:04:59;;;;;;;6.17;3.62;;;;;;;28.20;24.83;102261.19;1838345;78;21038;-54
2023/01/03 10:07:51;;;;;;;4.92;2.85;;;;;;;27.77;24.91;102257.37;1833344;77;21054;-51
2023/01/03 10:10:29;;;;;;;8.93;4.50;;;;;;;27.78;25.44;102252.30;1832105;78;21116;-48
2023/01/03 10:13:34;;;;;;;4.55;3.30;;;;;;;27.57;25.13;102257.27;1833828;77;21164;-57
2023/01/03 10:16:08;;;;;;;5.40;3.60;;;;;;;28.01;25.03;102251.14;1819878;78;21050;-54
2023/01/03 10:18:39;;;;;;;8.15;3.65;;;;;;;28.33;25.16;102252.81;1825849;78;21128;-49
2023/01/03 10:21:24;;;;;;;6.80;3.08;;;;;;;28.55;24.99;102254.91;1816475;78;21543;-48
2023/01/03 10:23:54;;;;;;;4.33;2.83;;;;;;;28.57;23.93;102251.56;1827740;78;21050;-56
2023/01/03 10:26:25;;;;;;;7.20;4.05;;;;;;;27.94;23.68;102240.50;1832545;78;21572;-55
2023/01/03 10:28:54;;;;;;;8.70;4.87;;;;;;;27.52;24.20;102232.50;1835218;77;21554;-55
2023/01/03 10:31:37;;;;;;;7.97;4.85;;;;;;;27.39;24.27;102221.89;1832808;78;21133;-55
2023/01/03 10:34:09;;;;;;;9.85;4.17;;;;;;;27.16;24.48;102227.41;1837616;78;21135;-54
2023/01/03 10:36:37;;;;;;;6.67;3.55;;;;;;;26.76;24.33;102223.20;1840776;78;21492;-54
2023/01/03 10:39:08;;;;;;;5.60;4.15;;;;;;;26.03;25.12;102218.88;1840631;78;21038;-52
2023/01/03 10:41:46;;;;;;;4.42;3.20;;;;;;;25.68;25.80;102211.77;1840433;78;21155;-47
2023/01/03 10:44:32;;;;;;;5.08;2.50;;;;;;;25.67;25.37;102207.34;1833692;78;21102;-51
2023/01/03 10:47:10;;;;;;;5.92;3.45;;;;;;;25.96;24.89;102200.12;1838221;78;21038;-49
2023/01/03 10:49:40;;;;;;;4.97;2.85;;;;;;;25.95;24.80;102202.44;1849770;77;21536;-50
2023/01/03 10:52:22;;;;;;;5.45;3.12;;;;;;;26.12;24.73;102191.13;1855903;77;21062;-52
2023/01/03 10:54:56;;;;;;;4.83;3.05;;;;;;;26.25;24.64;102195.52;1838808;78;21493;-50
2023/01/03 10:57:42;;;;;;;4.03;2.70;;;;;;;26.26;24.61;102196.72;1807344;79;21082;-50
2023/01/03 11:00:31;;;;;;;6.85;3.45;;;;;;;25.91;24.29;102188.80;1810258;77;21098;-49
2023/01/03 11:03:18;;;;;;;5.55;3.12;;;;;;;25.72;24.54;102189.45;1834505;78;21195;-51
2023/01/03 11:05:50;;;;;;;5.25;3.52;;;;;;;26.01;24.46;102179.02;1818878;78;21054;-48
2023/01/03 11:08:24;;;;;;;5.87;3.22;;;;;;;25.87;24.52;102185.49;1823020;78;21054;-48
2023/01/03 11:10:58;;;;;;;5.03;2.98;;;;;;;26.07;24.57;102190.64;1824355;78;21528;-49
2023/01/03 11:13:43;;;;;;;4.80;2.70;;;;;;;25.92;24.53;102185.13;1824306;78;21024;-48
2023/01/03 11:16:17;;;;;;;4.75;3.30;;;;;;;25.97;24.68;102178.41;1807646;78;21469;-51
2023/01/03 11:19:01;;;;;;;5.95;2.90;;;;;;;25.83;24.72;102171.05;1816787;77;21452;-47
2023/01/03 11:21:47;;;;;;;5.72;3.27;;;;;;;25.41;24.30;102175.22;1825593;78;21059;-48
2023/01/03 11:24:31;;;;;;;4.92;3.20;;;;;;;24.40;24.99;102176.26;1807543;78;21124;-51
2023/01/03 11:27:22;;;;;;;6.03;3.20;;;;;;;24.02;25.89;102169.22;1850107;76;21130;-46
2023/01/03 11:30:06;;;;;;;5.45;3.45;;;;;;;23.75;26.01;102167.53;1851499;77;21535;-48
2023/01/03 11:33:05;;;;;;;5.75;2.95;;;;;;;24.14;26.07;102164.25;1851535;77;21092;-48
2023/01/03 11:35:46;;;;;;;6.97;3.30;;;;;;;24.43;25.89;102161.23;1845789;77;21128;-47
2023/01/03 11:38:34;;;;;;;6.15;3.08;;;;;;;24.26;25.99;102147.20;1851493;77;21080;-46
2023/01/03 11:41:27;;;;;;;4.45;2.47;;;;;;;24.26;26.30;102151.24;1841088;77;21594;-49
2023/01/03 11:44:24;;;;;;;6.22;3.42;;;;;;;24.28;26.68;102157.37;1827531;77;21038;-48
2023/01/03 11:46:58;;;;;;;6.70;3.35;;;;;;;24.10;26.88;102146.62;1836586;77;21629;-51
2023/01/03 11:49:52;;;;;;;5.12;3.12;;;;;;;23.87;27.23;102145.66;1851481;76;21080;-49
2023/01/03 11:52:45;;;;;;;5.53;2.75;;;;;;;23.66;27.50;102141.30;1851785;77;21052;-48
2023/01/03 11:55:25;;;;;;;6.03;3.67;;;;;;;23.30;28.13;102147.02;1846518;77;21242;-47
2023/01/03 11:58:16;;;;;;;3.45;2.58;;;;;;;23.22;28.55;102137.28;1849906;76;21766;-50
2023/01/03 12:00:55;;;;;;;6.62;3.42;;;;;;;23.07;28.87;102143.25;1851652;77;21060;-50
2023/01/03 12:03:54;;;;;;;7.20;2.90;;;;;;;22.40;29.27;102134.80;1853820;77;21161;-50
2023/01/03 12:06:38;;;;;;;5.17;3.35;;;;;;;21.95;29.84;102134.19;1844693;77;21078;-48
2023/01/03 12:09:43;;;;;;;4.90;3.33;;;;;;;21.63;30.34;102132.23;1795338;80;21067;-50
2023/01/03 12:12:18;;;;;;;4.95;3.17;;;;;;;21.66;30.65;102137.41;1798276;80;21606;-49
2023/01/03 12:14:56;;;;;;;7.20;3.62;;;;;;;21.57;30.95;102128.97;1798220;80;21071;-52
2023/01/03 12:17:33;;;;;;;5.03;3.08;;;;;;;20.88;31.32;102131.02;1797900;78;21056;-50
2023/01/03 12:20:06;;;;;;;5.72;2.87;;;;;;;20.70;31.77;102129.85;1797237;79;21580;-51
2023/01/03 12:22:37;;;;;;;6.53;3.27;;;;;;;20.61;31.94;102134.41;1791719;80;21199;-51
2023/01/03 12:25:32;;;;;;;5.78;3.02;;;;;;;20.19;32.54;102126.09;1797367;80;21125;-49
2023/01/03 12:28:13;;;;;;;5.17;3.77;;;;;;;19.78;33.21;102119.11;1797287;80;21545;-52
2023/01/03 12:30:44;;;;;;;5.40;3.62;;;;;;;18.54;35.07;102111.87;1797259;80;21087;-48
2023/01/03 12:33:22;;;;;;;5.78;3.02;;;;;;;17.56;36.49;102124.52;1797219;80;21090;-50
2023/01/03 12:36:13;;;;;;;4.37;2.87;;;;;;;17.00;37.63;102125.75;1797437;80;21501;-49
2023/01/03 12:38:45;;;;;;;4.65;2.80;;;;;;;16.41;38.75;102126.87;1797400;80;21545;-50
2023/01/03 12:41:19;;;;;;;7.28;3.22;;;;;;;15.94;39.86;102121.70;1797986;78;21047;-52
2023/01/03 12:43:51;;;;;;;6.85;3.75;;;;;;;15.63;40.64;102125.52;1796916;80;21592;-52
2023/01/03 12:46:26;;;;;;;4.67;2.50;;;;;;;15.36;41.33;102120.34;1796627;79;21031;-52
2023/01/03 12:49:13;;;;;;;7.75;3.80;;;;;;;15.12;41.87;102117.23;1797222;79;21165;-48
2023/01/03 12:51:41;;;;;;;8.50;3.75;;;;;;;14.85;42.62;102120.82;1797325;80;21525;-49